sensor_id;sensor_type;location;lat;lon;timestamp;temperature;humidity
34646;DHT22;20857;47.808;12.482;2023-12-04T00:00:26;-6.40;99.90
34646;DHT22;20857;47.808;12.482;2023-12-04T00:02:52;-6.30;99.90
34646;DHT22;20857;47.808;12.482;2023-12-04T00:05:18;-6.20;99.90
34646;DHT22;20857;47.808;12.482;2023-12-04T00:07:43;-6.00;99.90
34646;DHT22;20857;47.808;12.482;2023-12-04T00:10:09;-5.80;99.90
34646;DHT22;20857;47.808;12.482;2023-12-04T00:12:35;-5.70;99.90
34646;DHT22;20857;47.808;12.482;2023-12-04T00:15:00;-5.60;99.90
34646;DHT22;20857;47.808;12.482;2023-12-04T00:17:26;-5.50;99.90
34646;DHT22;20857;47.808;12.482;2023-12-04T00:19:51;-5.40;99.90
34646;DHT22;20857;47.808;12.482;2023-12-04T00:22:17;-5.40;99.90
34646;DHT22;20857;47.808;12.482;2023-12-04T00:24:42;-5.30;99.90
34646;DHT22;20857;47.808;12.482;2023-12-04T00:27:08;-5.20;99.90
34646;DHT22;20857;47.808;12.482;2023-12-04T00:29:34;-5.20;99.90
34646;DHT22;20857;47.808;12.482;2023-12-04T00:31:59;-5.20;99.90
34646;DHT22;20857;47.808;12.482;2023-12-04T00:34:25;-5.20;99.90
34646;DHT22;20857;47.808;12.482;2023-12-04T00:36:50;-5.10;99.90
34646;DHT22;20857;47.808;12.482;2023-12-04T00:39:16;-5.00;99.90
34646;DHT22;20857;47.808;12.482;2023-12-04T00:41:41;-4.90;99.90
34646;DHT22;20857;47.808;12.482;2023-12-04T00:44:08;-4.90;99.90
34646;DHT22;20857;47.808;12.482;2023-12-04T00:46:33;-4.80;99.90
34646;DHT22;20857;47.808;12.482;2023-12-04T00:49:02;-4.80;99.90
34646;DHT22;20857;47.808;12.482;2023-12-04T00:51:37;-4.90;99.90
34646;DHT22;20857;47.808;12.482;2023-12-04T00:54:03;-4.90;99.90
34646;DHT22;20857;47.808;12.482;2023-12-04T00:56:29;-4.90;99.90
34646;DHT22;20857;47.808;12.482;2023-12-04T00:58:54;-5.00;99.90
34646;DHT22;20857;47.808;12.482;2023-12-04T01:01:20;-5.10;99.90
34646;DHT22;20857;47.808;12.482;2023-12-04T01:03:45;-5.20;99.90
34646;DHT22;20857;47.808;12.482;2023-12-04T01:06:21;-5.20;99.90
34646;DHT22;20857;47.808;12.482;2023-12-04T01:08:48;-5.30;99.90
34646;DHT22;20857;47.808;12.482;2023-12-04T01:11:14;-5.30;99.90
34646;DHT22;20857;47.808;12.482;2023-12-04T01:13:40;-5.20;99.90
34646;DHT22;20857;47.808;12.482;2023-12-04T01:16:06;-5.20;99.90
34646;DHT22;20857;47.808;12.482;2023-12-04T01:18:32;-5.10;99.90
34646;DHT22;20857;47.808;12.482;2023-12-04T01:20:58;-5.20;99.90
34646;DHT22;20857;47.808;12.482;2023-12-04T01:23:23;-5.50;99.90
34646;DHT22;20857;47.808;12.482;2023-12-04T01:25:49;-5.70;99.90
34646;DHT22;20857;47.808;12.482;2023-12-04T01:28:14;-5.80;99.90
34646;DHT22;20857;47.808;12.482;2023-12-04T01:30:40;-5.90;99.90
34646;DHT22;20857;47.808;12.482;2023-12-04T01:33:06;-5.80;99.90
34646;DHT22;20857;47.808;12.482;2023-12-04T01:35:33;-5.90;99.90
34646;DHT22;20857;47.808;12.482;2023-12-04T01:37:59;-5.90;99.90
34646;DHT22;20857;47.808;12.482;2023-12-04T01:40:26;-5.80;99.90
34646;DHT22;20857;47.808;12.482;2023-12-04T01:42:51;-5.80;99.90
34646;DHT22;20857;47.808;12.482;2023-12-04T01:45:17;-5.70;99.90
34646;DHT22;20857;47.808;12.482;2023-12-04T01:47:43;-5.60;99.90
34646;DHT22;20857;47.808;12.482;2023-12-04T01:50:09;-5.50;99.90
34646;DHT22;20857;47.808;12.482;2023-12-04T01:52:35;-5.70;99.90
34646;DHT22;20857;47.808;12.482;2023-12-04T01:55:02;-5.80;99.90
34646;DHT22;20857;47.808;12.482;2023-12-04T01:57:28;-5.90;99.90
34646;DHT22;20857;47.808;12.482;2023-12-04T01:59:54;-5.90;99.90
34646;DHT22;20857;47.808;12.482;2023-12-04T02:02:20;-6.20;99.90
34646;DHT22;20857;47.808;12.482;2023-12-04T02:04:45;-6.50;99.90
34646;DHT22;20857;47.808;12.482;2023-12-04T02:07:11;-6.50;99.90
34646;DHT22;20857;47.808;12.482;2023-12-04T02:09:37;-6.60;99.90
34646;DHT22;20857;47.808;12.482;2023-12-04T02:12:03;-6.70;99.90
34646;DHT22;20857;47.808;12.482;2023-12-04T02:14:29;-6.80;99.90
34646;DHT22;20857;47.808;12.482;2023-12-04T02:16:56;-7.10;99.90
34646;DHT22;20857;47.808;12.482;2023-12-04T02:19:23;-7.40;99.90
34646;DHT22;20857;47.808;12.482;2023-12-04T02:21:49;-7.50;99.90
34646;DHT22;20857;47.808;12.482;2023-12-04T02:24:15;-7.90;99.90
34646;DHT22;20857;47.808;12.482;2023-12-04T02:26:54;-8.00;99.90
34646;DHT22;20857;47.808;12.482;2023-12-04T02:29:34;-8.10;99.90
34646;DHT22;20857;47.808;12.482;2023-12-04T02:32:04;-8.20;99.90
34646;DHT22;20857;47.808;12.482;2023-12-04T02:34:32;-8.10;99.90
34646;DHT22;20857;47.808;12.482;2023-12-04T02:36:59;-7.70;99.90
34646;DHT22;20857;47.808;12.482;2023-12-04T02:39:27;-7.50;99.90
34646;DHT22;20857;47.808;12.482;2023-12-04T02:41:52;-7.20;99.90
34646;DHT22;20857;47.808;12.482;2023-12-04T02:44:18;-6.90;99.90
34646;DHT22;20857;47.808;12.482;2023-12-04T02:46:43;-6.60;99.90
34646;DHT22;20857;47.808;12.482;2023-12-04T02:49:09;-6.40;99.90
34646;DHT22;20857;47.808;12.482;2023-12-04T02:51:34;-6.50;99.90
34646;DHT22;20857;47.808;12.482;2023-12-04T02:54:00;-6.90;99.90
34646;DHT22;20857;47.808;12.482;2023-12-04T02:56:26;-7.20;99.90
34646;DHT22;20857;47.808;12.482;2023-12-04T02:58:51;-7.10;99.90
34646;DHT22;20857;47.808;12.482;2023-12-04T03:01:17;-6.80;99.90
34646;DHT22;20857;47.808;12.482;2023-12-04T03:03:42;-6.70;99.90
34646;DHT22;20857;47.808;12.482;2023-12-04T03:06:08;-6.60;99.90
34646;DHT22;20857;47.808;12.482;2023-12-04T03:08:34;-6.60;99.90
34646;DHT22;20857;47.808;12.482;2023-12-04T03:11:01;-6.90;99.90
34646;DHT22;20857;47.808;12.482;2023-12-04T03:13:27;-7.00;99.90
34646;DHT22;20857;47.808;12.482;2023-12-04T03:15:53;-7.30;99.90
34646;DHT22;20857;47.808;12.482;2023-12-04T03:18:18;-7.60;99.90
34646;DHT22;20857;47.808;12.482;2023-12-04T03:20:44;-8.00;99.90
34646;DHT22;20857;47.808;12.482;2023-12-04T03:23:09;-8.00;99.90
34646;DHT22;20857;47.808;12.482;2023-12-04T03:25:35;-8.30;99.90
34646;DHT22;20857;47.808;12.482;2023-12-04T03:28:00;-8.60;99.90
34646;DHT22;20857;47.808;12.482;2023-12-04T03:30:26;-8.80;99.90
34646;DHT22;20857;47.808;12.482;2023-12-04T03:32:51;-8.90;99.90
34646;DHT22;20857;47.808;12.482;2023-12-04T03:35:17;-9.00;99.90
34646;DHT22;20857;47.808;12.482;2023-12-04T03:37:43;-9.00;99.90
34646;DHT22;20857;47.808;12.482;2023-12-04T03:40:08;-8.90;99.90
34646;DHT22;20857;47.808;12.482;2023-12-04T03:42:34;-8.90;99.90
34646;DHT22;20857;47.808;12.482;2023-12-04T03:45:00;-8.90;99.90
34646;DHT22;20857;47.808;12.482;2023-12-04T03:47:25;-8.90;99.90
34646;DHT22;20857;47.808;12.482;2023-12-04T03:49:51;-8.70;99.90
34646;DHT22;20857;47.808;12.482;2023-12-04T03:52:16;-8.30;99.90
34646;DHT22;20857;47.808;12.482;2023-12-04T03:54:42;-8.30;99.90
34646;DHT22;20857;47.808;12.482;2023-12-04T03:57:08;-8.40;99.90
34646;DHT22;20857;47.808;12.482;2023-12-04T03:59:33;-8.40;99.90
34646;DHT22;20857;47.808;12.482;2023-12-04T04:01:59;-8.20;99.90
34646;DHT22;20857;47.808;12.482;2023-12-04T04:04:24;-7.80;99.90
34646;DHT22;20857;47.808;12.482;2023-12-04T04:06:50;-7.70;99.90
34646;DHT22;20857;47.808;12.482;2023-12-04T04:09:16;-7.70;99.90
34646;DHT22;20857;47.808;12.482;2023-12-04T04:11:42;-7.40;99.90
34646;DHT22;20857;47.808;12.482;2023-12-04T04:14:07;-7.20;99.90
34646;DHT22;20857;47.808;12.482;2023-12-04T04:16:33;-7.20;99.90
34646;DHT22;20857;47.808;12.482;2023-12-04T04:18:59;-7.60;99.90
34646;DHT22;20857;47.808;12.482;2023-12-04T04:21:24;-8.10;99.90
34646;DHT22;20857;47.808;12.482;2023-12-04T04:23:50;-8.10;99.90
34646;DHT22;20857;47.808;12.482;2023-12-04T04:26:15;-8.30;99.90
34646;DHT22;20857;47.808;12.482;2023-12-04T04:28:41;-8.20;99.90
34646;DHT22;20857;47.808;12.482;2023-12-04T04:31:06;-8.20;99.90
34646;DHT22;20857;47.808;12.482;2023-12-04T04:33:32;-8.10;99.90
34646;DHT22;20857;47.808;12.482;2023-12-04T04:35:58;-8.10;99.90
34646;DHT22;20857;47.808;12.482;2023-12-04T04:38:23;-8.10;99.90
34646;DHT22;20857;47.808;12.482;2023-12-04T04:40:49;-8.10;99.90
34646;DHT22;20857;47.808;12.482;2023-12-04T04:43:14;-7.70;99.90
34646;DHT22;20857;47.808;12.482;2023-12-04T04:45:40;-7.70;99.90
34646;DHT22;20857;47.808;12.482;2023-12-04T04:48:05;-8.00;99.90
34646;DHT22;20857;47.808;12.482;2023-12-04T04:50:31;-8.00;99.90
34646;DHT22;20857;47.808;12.482;2023-12-04T04:52:56;-8.20;99.90
34646;DHT22;20857;47.808;12.482;2023-12-04T04:55:22;-8.30;99.90
34646;DHT22;20857;47.808;12.482;2023-12-04T04:57:47;-8.30;99.90
34646;DHT22;20857;47.808;12.482;2023-12-04T05:00:13;-8.30;99.90
34646;DHT22;20857;47.808;12.482;2023-12-04T05:02:39;-8.40;99.90
34646;DHT22;20857;47.808;12.482;2023-12-04T05:05:06;-8.50;99.90
34646;DHT22;20857;47.808;12.482;2023-12-04T05:07:32;-8.50;99.90
34646;DHT22;20857;47.808;12.482;2023-12-04T05:09:57;-8.60;99.90
34646;DHT22;20857;47.808;12.482;2023-12-04T05:12:23;-8.50;99.90
34646;DHT22;20857;47.808;12.482;2023-12-04T05:14:48;-8.60;99.90
34646;DHT22;20857;47.808;12.482;2023-12-04T05:17:14;-8.90;99.90
34646;DHT22;20857;47.808;12.482;2023-12-04T05:19:39;-8.80;99.90
34646;DHT22;20857;47.808;12.482;2023-12-04T05:22:06;-8.40;99.90
34646;DHT22;20857;47.808;12.482;2023-12-04T05:24:32;-7.80;99.90
34646;DHT22;20857;47.808;12.482;2023-12-04T05:26:58;-7.70;99.90
34646;DHT22;20857;47.808;12.482;2023-12-04T05:29:23;-8.40;99.90
34646;DHT22;20857;47.808;12.482;2023-12-04T05:31:49;-8.50;99.90
34646;DHT22;20857;47.808;12.482;2023-12-04T05:34:14;-8.70;99.90
34646;DHT22;20857;47.808;12.482;2023-12-04T05:36:40;-8.60;99.90
34646;DHT22;20857;47.808;12.482;2023-12-04T05:39:06;-8.60;99.90
34646;DHT22;20857;47.808;12.482;2023-12-04T05:41:32;-8.00;99.90
34646;DHT22;20857;47.808;12.482;2023-12-04T05:43:58;-7.50;99.90
34646;DHT22;20857;47.808;12.482;2023-12-04T05:46:23;-7.10;99.90
34646;DHT22;20857;47.808;12.482;2023-12-04T05:48:49;-6.70;99.90
34646;DHT22;20857;47.808;12.482;2023-12-04T05:51:14;-6.50;99.90
34646;DHT22;20857;47.808;12.482;2023-12-04T05:53:41;-7.10;99.90
34646;DHT22;20857;47.808;12.482;2023-12-04T05:56:07;-7.50;99.90
34646;DHT22;20857;47.808;12.482;2023-12-04T05:58:34;-7.60;99.90
34646;DHT22;20857;47.808;12.482;2023-12-04T06:01:00;-7.40;99.90
34646;DHT22;20857;47.808;12.482;2023-12-04T06:03:26;-7.30;99.90
34646;DHT22;20857;47.808;12.482;2023-12-04T06:05:51;-7.20;99.90
34646;DHT22;20857;47.808;12.482;2023-12-04T06:08:17;-7.10;99.90
34646;DHT22;20857;47.808;12.482;2023-12-04T06:10:42;-6.90;99.90
34646;DHT22;20857;47.808;12.482;2023-12-04T06:13:08;-6.90;99.90
34646;DHT22;20857;47.808;12.482;2023-12-04T06:15:33;-7.10;99.90
34646;DHT22;20857;47.808;12.482;2023-12-04T06:17:59;-7.40;99.90
34646;DHT22;20857;47.808;12.482;2023-12-04T06:20:25;-7.50;99.90
34646;DHT22;20857;47.808;12.482;2023-12-04T06:22:50;-7.70;99.90
34646;DHT22;20857;47.808;12.482;2023-12-04T06:25:16;-7.50;99.90
34646;DHT22;20857;47.808;12.482;2023-12-04T06:27:42;-7.30;99.90
34646;DHT22;20857;47.808;12.482;2023-12-04T06:30:08;-7.60;99.90
34646;DHT22;20857;47.808;12.482;2023-12-04T06:32:34;-7.50;99.90
34646;DHT22;20857;47.808;12.482;2023-12-04T06:35:01;-7.40;99.90
34646;DHT22;20857;47.808;12.482;2023-12-04T06:37:27;-7.40;99.90
34646;DHT22;20857;47.808;12.482;2023-12-04T06:39:53;-7.70;99.90
34646;DHT22;20857;47.808;12.482;2023-12-04T06:42:19;-8.10;99.90
34646;DHT22;20857;47.808;12.482;2023-12-04T06:44:45;-7.90;99.90
34646;DHT22;20857;47.808;12.482;2023-12-04T06:47:12;-8.00;99.90
34646;DHT22;20857;47.808;12.482;2023-12-04T06:49:37;-7.80;99.90
34646;DHT22;20857;47.808;12.482;2023-12-04T06:52:04;-7.50;99.90
34646;DHT22;20857;47.808;12.482;2023-12-04T06:54:29;-7.60;99.90
34646;DHT22;20857;47.808;12.482;2023-12-04T06:56:55;-7.70;99.90
34646;DHT22;20857;47.808;12.482;2023-12-04T06:59:21;-7.80;99.90
34646;DHT22;20857;47.808;12.482;2023-12-04T07:01:47;-7.90;99.90
34646;DHT22;20857;47.808;12.482;2023-12-04T07:04:13;-8.20;99.90
34646;DHT22;20857;47.808;12.482;2023-12-04T07:06:39;-8.30;99.90
34646;DHT22;20857;47.808;12.482;2023-12-04T07:11:33;-8.20;99.90
34646;DHT22;20857;47.808;12.482;2023-12-04T07:13:59;-8.00;99.90
34646;DHT22;20857;47.808;12.482;2023-12-04T07:16:25;-8.30;99.90
34646;DHT22;20857;47.808;12.482;2023-12-04T07:18:50;-8.00;99.90
34646;DHT22;20857;47.808;12.482;2023-12-04T07:21:16;-8.00;99.90
34646;DHT22;20857;47.808;12.482;2023-12-04T07:23:41;-7.80;99.90
34646;DHT22;20857;47.808;12.482;2023-12-04T07:26:07;-7.80;99.90
34646;DHT22;20857;47.808;12.482;2023-12-04T07:28:33;-7.70;99.90
34646;DHT22;20857;47.808;12.482;2023-12-04T07:31:00;-7.50;99.90
34646;DHT22;20857;47.808;12.482;2023-12-04T07:33:27;-7.50;99.90
34646;DHT22;20857;47.808;12.482;2023-12-04T07:35:52;-7.30;99.90
34646;DHT22;20857;47.808;12.482;2023-12-04T07:38:18;-6.90;99.90
34646;DHT22;20857;47.808;12.482;2023-12-04T07:40:45;-6.30;99.90
34646;DHT22;20857;47.808;12.482;2023-12-04T07:43:10;-6.30;99.90
34646;DHT22;20857;47.808;12.482;2023-12-04T07:45:36;-6.50;99.90
34646;DHT22;20857;47.808;12.482;2023-12-04T07:48:03;-6.70;99.90
34646;DHT22;20857;47.808;12.482;2023-12-04T07:52:55;-7.30;99.90
34646;DHT22;20857;47.808;12.482;2023-12-04T07:55:21;-7.30;99.90
34646;DHT22;20857;47.808;12.482;2023-12-04T07:57:47;-7.20;99.90
34646;DHT22;20857;47.808;12.482;2023-12-04T08:00:13;-7.40;99.90
34646;DHT22;20857;47.808;12.482;2023-12-04T08:02:39;-7.40;99.90
34646;DHT22;20857;47.808;12.482;2023-12-04T08:05:05;-7.20;99.90
34646;DHT22;20857;47.808;12.482;2023-12-04T08:09:57;-6.90;99.90
34646;DHT22;20857;47.808;12.482;2023-12-04T08:12:23;-6.80;99.90
34646;DHT22;20857;47.808;12.482;2023-12-04T08:14:48;-6.70;99.90
34646;DHT22;20857;47.808;12.482;2023-12-04T08:17:14;-6.60;99.90
34646;DHT22;20857;47.808;12.482;2023-12-04T08:22:07;-6.40;99.90
34646;DHT22;20857;47.808;12.482;2023-12-04T08:24:32;-6.30;99.90
34646;DHT22;20857;47.808;12.482;2023-12-04T08:26:58;-6.40;99.90
34646;DHT22;20857;47.808;12.482;2023-12-04T08:29:23;-6.30;99.90
34646;DHT22;20857;47.808;12.482;2023-12-04T08:31:49;-5.90;99.90
34646;DHT22;20857;47.808;12.482;2023-12-04T08:34:15;-5.90;99.90
34646;DHT22;20857;47.808;12.482;2023-12-04T08:36:41;-6.10;99.90
34646;DHT22;20857;47.808;12.482;2023-12-04T08:39:07;-6.10;99.90
34646;DHT22;20857;47.808;12.482;2023-12-04T08:41:32;-6.10;99.90
34646;DHT22;20857;47.808;12.482;2023-12-04T08:43:58;-6.00;99.90
34646;DHT22;20857;47.808;12.482;2023-12-04T08:46:23;-5.80;99.90
34646;DHT22;20857;47.808;12.482;2023-12-04T08:48:49;-5.50;99.90
34646;DHT22;20857;47.808;12.482;2023-12-04T08:51:16;-5.50;99.90
34646;DHT22;20857;47.808;12.482;2023-12-04T08:53:42;-5.40;99.90
34646;DHT22;20857;47.808;12.482;2023-12-04T08:56:08;-5.50;99.90
34646;DHT22;20857;47.808;12.482;2023-12-04T08:58:34;-5.50;99.90
34646;DHT22;20857;47.808;12.482;2023-12-04T09:00:59;-5.40;99.90
34646;DHT22;20857;47.808;12.482;2023-12-04T09:03:25;-5.10;99.90
34646;DHT22;20857;47.808;12.482;2023-12-04T09:05:50;-4.80;99.90
34646;DHT22;20857;47.808;12.482;2023-12-04T09:08:22;-4.60;99.90
34646;DHT22;20857;47.808;12.482;2023-12-04T09:10:47;-4.40;99.90
34646;DHT22;20857;47.808;12.482;2023-12-04T09:13:14;-4.30;99.90
34646;DHT22;20857;47.808;12.482;2023-12-04T09:15:39;-4.00;99.90
34646;DHT22;20857;47.808;12.482;2023-12-04T09:18:05;-4.00;99.90
34646;DHT22;20857;47.808;12.482;2023-12-04T09:20:31;-3.70;99.90
34646;DHT22;20857;47.808;12.482;2023-12-04T09:22:56;-3.60;99.90
34646;DHT22;20857;47.808;12.482;2023-12-04T09:25:22;-3.50;99.90
34646;DHT22;20857;47.808;12.482;2023-12-04T09:27:47;-3.40;99.90
34646;DHT22;20857;47.808;12.482;2023-12-04T09:30:13;-3.50;99.90
34646;DHT22;20857;47.808;12.482;2023-12-04T09:32:39;-3.30;99.90
34646;DHT22;20857;47.808;12.482;2023-12-04T09:35:05;-3.30;99.90
34646;DHT22;20857;47.808;12.482;2023-12-04T09:37:31;-3.10;99.90
34646;DHT22;20857;47.808;12.482;2023-12-04T09:39:57;-3.00;99.90
34646;DHT22;20857;47.808;12.482;2023-12-04T09:42:23;-3.10;99.90
34646;DHT22;20857;47.808;12.482;2023-12-04T09:44:48;-3.00;99.90
34646;DHT22;20857;47.808;12.482;2023-12-04T09:47:18;-2.80;99.90
34646;DHT22;20857;47.808;12.482;2023-12-04T09:49:45;-2.70;99.90
34646;DHT22;20857;47.808;12.482;2023-12-04T09:52:11;-2.60;99.90
34646;DHT22;20857;47.808;12.482;2023-12-04T09:54:37;-2.50;99.90
34646;DHT22;20857;47.808;12.482;2023-12-04T09:57:04;-2.30;99.90
34646;DHT22;20857;47.808;12.482;2023-12-04T09:59:31;-2.00;99.90
34646;DHT22;20857;47.808;12.482;2023-12-04T10:01:57;-1.90;99.90
34646;DHT22;20857;47.808;12.482;2023-12-04T10:04:24;-1.60;99.90
34646;DHT22;20857;47.808;12.482;2023-12-04T10:06:51;-1.60;99.90
34646;DHT22;20857;47.808;12.482;2023-12-04T10:09:18;-1.50;99.90
34646;DHT22;20857;47.808;12.482;2023-12-04T10:11:45;-0.40;99.90
34646;DHT22;20857;47.808;12.482;2023-12-04T10:14:19;-1.50;99.90
34646;DHT22;20857;47.808;12.482;2023-12-04T10:16:45;-1.40;99.90
34646;DHT22;20857;47.808;12.482;2023-12-04T10:21:41;-1.70;99.90
34646;DHT22;20857;47.808;12.482;2023-12-04T10:24:07;-1.60;99.90
34646;DHT22;20857;47.808;12.482;2023-12-04T10:26:33;-1.60;99.90
34646;DHT22;20857;47.808;12.482;2023-12-04T10:29:00;-1.40;99.90
34646;DHT22;20857;47.808;12.482;2023-12-04T10:31:26;-1.30;99.90
34646;DHT22;20857;47.808;12.482;2023-12-04T10:33:52;-1.10;99.90
34646;DHT22;20857;47.808;12.482;2023-12-04T10:36:17;-1.10;99.90
34646;DHT22;20857;47.808;12.482;2023-12-04T10:38:44;-1.10;99.90
34646;DHT22;20857;47.808;12.482;2023-12-04T10:41:13;-1.10;99.90
34646;DHT22;20857;47.808;12.482;2023-12-04T10:43:47;-1.20;99.90
34646;DHT22;20857;47.808;12.482;2023-12-04T10:46:14;-1.20;99.90
34646;DHT22;20857;47.808;12.482;2023-12-04T10:48:44;-1.10;99.90
34646;DHT22;20857;47.808;12.482;2023-12-04T10:51:11;-1.30;99.90
34646;DHT22;20857;47.808;12.482;2023-12-04T10:53:37;-1.40;99.90
34646;DHT22;20857;47.808;12.482;2023-12-04T10:56:08;-1.30;99.90
34646;DHT22;20857;47.808;12.482;2023-12-04T10:58:34;-1.30;99.90
34646;DHT22;20857;47.808;12.482;2023-12-04T11:01:01;-1.20;99.90
34646;DHT22;20857;47.808;12.482;2023-12-04T11:03:47;-1.20;99.90
34646;DHT22;20857;47.808;12.482;2023-12-04T11:06:16;-1.20;99.90
34646;DHT22;20857;47.808;12.482;2023-12-04T11:08:42;-1.20;99.90
34646;DHT22;20857;47.808;12.482;2023-12-04T11:11:12;-1.30;99.90
34646;DHT22;20857;47.808;12.482;2023-12-04T11:13:41;-1.30;99.90
34646;DHT22;20857;47.808;12.482;2023-12-04T11:16:12;-1.30;99.90
34646;DHT22;20857;47.808;12.482;2023-12-04T11:18:43;-1.40;99.90
34646;DHT22;20857;47.808;12.482;2023-12-04T11:21:10;-1.20;99.90
34646;DHT22;20857;47.808;12.482;2023-12-04T11:23:37;-1.10;99.90
34646;DHT22;20857;47.808;12.482;2023-12-04T11:26:04;-0.90;99.90
34646;DHT22;20857;47.808;12.482;2023-12-04T11:28:31;-0.60;99.90
34646;DHT22;20857;47.808;12.482;2023-12-04T11:30:59;-0.40;99.90
34646;DHT22;20857;47.808;12.482;2023-12-04T11:33:26;-0.40;99.90
34646;DHT22;20857;47.808;12.482;2023-12-04T11:35:52;-0.30;99.90
34646;DHT22;20857;47.808;12.482;2023-12-04T11:38:17;-0.50;99.90
34646;DHT22;20857;47.808;12.482;2023-12-04T11:40:43;-0.50;99.90
34646;DHT22;20857;47.808;12.482;2023-12-04T11:43:27;-1.00;99.90
34646;DHT22;20857;47.808;12.482;2023-12-04T11:46:10;-1.00;99.90
34646;DHT22;20857;47.808;12.482;2023-12-04T11:48:39;-0.90;99.90
34646;DHT22;20857;47.808;12.482;2023-12-04T11:51:07;-1.10;99.90
34646;DHT22;20857;47.808;12.482;2023-12-04T11:53:37;-1.10;99.90
34646;DHT22;20857;47.808;12.482;2023-12-04T11:56:11;-1.20;99.90
34646;DHT22;20857;47.808;12.482;2023-12-04T11:58:43;-1.20;99.90
34646;DHT22;20857;47.808;12.482;2023-12-04T12:01:09;-1.20;99.90
34646;DHT22;20857;47.808;12.482;2023-12-04T12:03:35;-1.30;99.90
34646;DHT22;20857;47.808;12.482;2023-12-04T12:06:00;-1.40;99.90
34646;DHT22;20857;47.808;12.482;2023-12-04T12:08:28;-1.40;99.90
34646;DHT22;20857;47.808;12.482;2023-12-04T12:10:54;-1.50;99.90
34646;DHT22;20857;47.808;12.482;2023-12-04T12:13:20;-1.40;99.90
34646;DHT22;20857;47.808;12.482;2023-12-04T12:15:50;-1.40;99.90
34646;DHT22;20857;47.808;12.482;2023-12-04T12:18:16;-1.30;99.90
34646;DHT22;20857;47.808;12.482;2023-12-04T12:20:42;-1.20;99.90
34646;DHT22;20857;47.808;12.482;2023-12-04T12:23:08;-1.20;99.90
34646;DHT22;20857;47.808;12.482;2023-12-04T12:25:35;-1.10;99.90
34646;DHT22;20857;47.808;12.482;2023-12-04T12:28:04;-1.20;99.90
34646;DHT22;20857;47.808;12.482;2023-12-04T12:30:30;-1.30;99.90
34646;DHT22;20857;47.808;12.482;2023-12-04T12:32:55;-1.40;99.90
34646;DHT22;20857;47.808;12.482;2023-12-04T12:35:21;-1.30;99.90
34646;DHT22;20857;47.808;12.482;2023-12-04T12:37:47;-1.30;99.90
34646;DHT22;20857;47.808;12.482;2023-12-04T12:40:12;-1.30;99.90
34646;DHT22;20857;47.808;12.482;2023-12-04T12:42:39;-1.20;99.90
34646;DHT22;20857;47.808;12.482;2023-12-04T12:45:07;-1.10;99.90
34646;DHT22;20857;47.808;12.482;2023-12-04T12:47:35;-1.00;99.90
34646;DHT22;20857;47.808;12.482;2023-12-04T12:50:01;-0.80;99.90
34646;DHT22;20857;47.808;12.482;2023-12-04T12:52:28;-0.70;99.90
34646;DHT22;20857;47.808;12.482;2023-12-04T12:54:54;-0.80;99.90
34646;DHT22;20857;47.808;12.482;2023-12-04T12:57:29;-0.90;99.90
34646;DHT22;20857;47.808;12.482;2023-12-04T12:59:54;-0.90;99.90
34646;DHT22;20857;47.808;12.482;2023-12-04T13:02:20;-0.90;99.90
34646;DHT22;20857;47.808;12.482;2023-12-04T13:04:46;-0.90;99.90
34646;DHT22;20857;47.808;12.482;2023-12-04T13:07:12;-0.80;99.90
34646;DHT22;20857;47.808;12.482;2023-12-04T13:09:38;-0.90;99.90
34646;DHT22;20857;47.808;12.482;2023-12-04T13:12:05;-0.80;99.90
34646;DHT22;20857;47.808;12.482;2023-12-04T13:14:31;-0.90;99.90
34646;DHT22;20857;47.808;12.482;2023-12-04T13:16:56;-0.80;99.90
34646;DHT22;20857;47.808;12.482;2023-12-04T13:19:23;-0.90;99.90
34646;DHT22;20857;47.808;12.482;2023-12-04T13:21:49;-0.80;99.90
34646;DHT22;20857;47.808;12.482;2023-12-04T13:24:15;-0.80;99.90
34646;DHT22;20857;47.808;12.482;2023-12-04T13:26:41;-0.70;99.90
34646;DHT22;20857;47.808;12.482;2023-12-04T13:29:06;-0.80;99.90
34646;DHT22;20857;47.808;12.482;2023-12-04T13:31:35;-0.70;99.90
34646;DHT22;20857;47.808;12.482;2023-12-04T13:34:01;-0.70;99.90
34646;DHT22;20857;47.808;12.482;2023-12-04T13:36:28;-0.50;99.90
34646;DHT22;20857;47.808;12.482;2023-12-04T13:38:54;-0.60;99.90
34646;DHT22;20857;47.808;12.482;2023-12-04T13:41:20;-0.90;99.90
34646;DHT22;20857;47.808;12.482;2023-12-04T13:44:04;-1.10;99.90
34646;DHT22;20857;47.808;12.482;2023-12-04T13:46:30;-1.30;99.90
34646;DHT22;20857;47.808;12.482;2023-12-04T13:48:56;-1.40;99.90
34646;DHT22;20857;47.808;12.482;2023-12-04T13:51:22;-1.60;99.90
34646;DHT22;20857;47.808;12.482;2023-12-04T13:53:48;-1.80;99.90
34646;DHT22;20857;47.808;12.482;2023-12-04T13:56:15;-1.90;99.90
34646;DHT22;20857;47.808;12.482;2023-12-04T13:59:07;-1.90;99.90
34646;DHT22;20857;47.808;12.482;2023-12-04T14:01:33;-1.70;99.90
34646;DHT22;20857;47.808;12.482;2023-12-04T14:03:59;-1.60;99.90
34646;DHT22;20857;47.808;12.482;2023-12-04T14:06:28;-1.50;99.90
34646;DHT22;20857;47.808;12.482;2023-12-04T14:08:54;-1.50;99.90
34646;DHT22;20857;47.808;12.482;2023-12-04T14:11:20;-1.60;99.90
34646;DHT22;20857;47.808;12.482;2023-12-04T14:13:46;-1.70;99.90
34646;DHT22;20857;47.808;12.482;2023-12-04T14:16:11;-1.80;99.90
34646;DHT22;20857;47.808;12.482;2023-12-04T14:18:37;-2.10;99.90
34646;DHT22;20857;47.808;12.482;2023-12-04T14:21:03;-2.30;99.90
34646;DHT22;20857;47.808;12.482;2023-12-04T14:23:29;-2.40;99.90
34646;DHT22;20857;47.808;12.482;2023-12-04T14:25:54;-2.60;99.90
34646;DHT22;20857;47.808;12.482;2023-12-04T14:28:20;-2.60;99.90
34646;DHT22;20857;47.808;12.482;2023-12-04T14:30:46;-2.60;99.90
34646;DHT22;20857;47.808;12.482;2023-12-04T14:33:12;-2.60;99.90
34646;DHT22;20857;47.808;12.482;2023-12-04T14:35:38;-2.70;99.90
34646;DHT22;20857;47.808;12.482;2023-12-04T14:38:04;-2.60;99.90
34646;DHT22;20857;47.808;12.482;2023-12-04T14:40:30;-2.60;99.90
34646;DHT22;20857;47.808;12.482;2023-12-04T14:42:56;-2.60;99.90
34646;DHT22;20857;47.808;12.482;2023-12-04T14:45:25;-2.60;99.90
34646;DHT22;20857;47.808;12.482;2023-12-04T14:47:53;-2.60;99.90
34646;DHT22;20857;47.808;12.482;2023-12-04T14:50:22;-2.60;99.90
34646;DHT22;20857;47.808;12.482;2023-12-04T14:52:49;-2.60;99.90
34646;DHT22;20857;47.808;12.482;2023-12-04T14:55:19;-2.60;99.90
34646;DHT22;20857;47.808;12.482;2023-12-04T14:57:47;-2.70;99.90
34646;DHT22;20857;47.808;12.482;2023-12-04T15:00:31;-2.80;99.90
34646;DHT22;20857;47.808;12.482;2023-12-04T15:03:00;-2.80;99.90
34646;DHT22;20857;47.808;12.482;2023-12-04T15:05:28;-2.90;99.90
34646;DHT22;20857;47.808;12.482;2023-12-04T15:08:29;-2.90;99.90
34646;DHT22;20857;47.808;12.482;2023-12-04T15:11:13;-3.00;99.90
34646;DHT22;20857;47.808;12.482;2023-12-04T15:13:44;-3.10;99.90
34646;DHT22;20857;47.808;12.482;2023-12-04T15:16:21;-3.30;99.90
34646;DHT22;20857;47.808;12.482;2023-12-04T15:19:01;-3.40;99.90
34646;DHT22;20857;47.808;12.482;2023-12-04T15:21:38;-3.40;99.90
34646;DHT22;20857;47.808;12.482;2023-12-04T15:24:05;-3.50;99.90